Terminal Aerodrome Forecast
Issued by NWS

Home | Current Version | Previous Version | Graphics & Text | Print | Product List | Glossary On
Versions: 1 2 3 4 5 6 7 8 9 10 11 12 13 14 15 16 17 18 19 20 21
000
FTUS43 KOAX 012320
TAFCDR
TAF
KCDR 012320Z 0200/0224 31010KT P6SM SCT200
     FM020200 VRB05KT P6SM SCT070 BKN200
     FM020900 16009KT P6SM SCT060 SCT200=

USA.gov is the U.S. government's official web portal to all federal, state and local government web resources and services.